createdAt,value
2018-06-07T00:01:21.846Z,4.30
2018-06-07T00:07:27.618Z,3.80
2018-06-07T00:13:33.293Z,3.33
2018-06-07T00:19:38.947Z,3.67
2018-06-07T00:25:44.587Z,3.30
2018-06-07T00:31:50.633Z,2.97
2018-06-07T00:37:56.465Z,3.80
2018-06-07T00:44:02.312Z,3.07
2018-06-07T00:50:07.989Z,3.10
2018-06-07T00:56:29.398Z,2.97
2018-06-07T01:02:35.348Z,3.13
2018-06-07T01:08:41.307Z,3.23
2018-06-07T01:14:47.016Z,3.33
2018-06-07T01:20:53.179Z,3.53
2018-06-07T01:26:58.922Z,3.30
2018-06-07T01:33:38.911Z,2.90
2018-06-07T01:39:44.561Z,2.77
2018-06-07T01:45:50.343Z,3.33
2018-06-07T01:51:56.773Z,3.23
2018-06-07T01:58:02.559Z,2.73
2018-06-07T02:04:08.199Z,3.50
2018-06-07T02:10:13.999Z,3.10
2018-06-07T02:16:19.916Z,3.20
2018-06-07T02:22:25.644Z,4.10
2018-06-07T02:28:31.299Z,3.17
2018-06-07T02:34:36.941Z,3.13
2018-06-07T02:40:42.572Z,2.90
2018-06-07T02:46:48.215Z,3.20
2018-06-07T02:52:54.058Z,3.30
2018-06-07T02:58:59.737Z,2.70
2018-06-07T03:05:05.584Z,3.10
2018-06-07T03:11:11.281Z,3.47
2018-06-07T03:17:16.911Z,3.93
2018-06-07T03:23:22.632Z,3.40
2018-06-07T03:29:28.363Z,4.17
2018-06-07T03:35:34.128Z,3.03
2018-06-07T03:41:39.783Z,4.00
2018-06-07T03:47:45.512Z,3.33
2018-06-07T03:53:51.227Z,3.50
2018-06-07T03:59:56.891Z,3.10
2018-06-07T04:06:02.601Z,3.90
2018-06-07T04:12:08.344Z,3.03
2018-06-07T04:18:14.102Z,3.10
2018-06-07T04:24:19.861Z,3.50
2018-06-07T04:30:25.694Z,3.30
2018-06-07T04:36:31.879Z,3.33
2018-06-07T04:42:37.577Z,2.67
2018-06-07T04:48:43.275Z,3.03
2018-06-07T04:54:48.997Z,2.57
2018-06-07T05:00:54.877Z,2.87
2018-06-07T05:07:00.499Z,2.93
2018-06-07T05:13:06.229Z,3.27
2018-06-07T05:19:11.883Z,2.80
2018-06-07T05:25:17.522Z,2.50
2018-06-07T05:31:24.496Z,2.80
2018-06-07T05:37:30.122Z,3.00
2018-06-07T05:43:35.772Z,2.30
2018-06-07T05:49:41.408Z,2.87
2018-06-07T05:55:47.150Z,3.37
2018-06-07T06:01:52.820Z,3.50
2018-06-07T06:07:58.500Z,2.90
2018-06-07T06:14:04.199Z,2.80
2018-06-07T06:20:09.869Z,3.00
2018-06-07T06:26:15.609Z,2.70
2018-06-07T06:32:21.825Z,2.80
2018-06-07T06:38:35.803Z,2.70
2018-06-07T06:44:41.546Z,2.30
2018-06-07T06:50:47.264Z,2.43
2018-06-07T06:56:52.926Z,3.17
2018-06-07T07:02:58.565Z,2.20
2018-06-07T07:09:05.227Z,2.80
2018-06-07T07:15:10.813Z,2.50
2018-06-07T07:21:16.447Z,2.83
2018-06-07T07:27:22.177Z,2.47
2018-06-07T07:33:28.159Z,2.67
2018-06-07T07:39:33.877Z,2.73
2018-06-07T07:45:39.943Z,2.73
2018-06-07T07:51:45.629Z,3.40
2018-06-07T07:57:52.765Z,2.70
2018-06-07T08:03:58.687Z,3.50
2018-06-07T08:10:04.435Z,2.90
2018-06-07T08:16:10.172Z,3.67
2018-06-07T08:22:15.882Z,3.50
2018-06-07T08:28:21.881Z,3.70
2018-06-07T08:34:27.609Z,3.30
2018-06-07T08:40:33.334Z,4.10
2018-06-07T08:46:39.299Z,4.63
2018-06-07T08:52:45.084Z,4.00
2018-06-07T08:58:52.236Z,4.33
2018-06-07T09:04:57.911Z,4.43
2018-06-07T09:11:03.708Z,4.37
2018-06-07T09:17:09.421Z,4.97
2018-06-07T09:23:15.233Z,5.40
2018-06-07T09:29:21.388Z,5.27
2018-06-07T09:35:28.577Z,6.20
2018-06-07T09:41:34.353Z,4.73
2018-06-07T09:47:40.107Z,5.40
2018-06-07T09:53:45.750Z,5.70
2018-06-07T09:59:51.721Z,4.87
2018-06-07T10:05:57.973Z,5.40
2018-06-07T10:12:03.864Z,6.00
2018-06-07T10:18:09.514Z,5.83
2018-06-07T10:24:15.143Z,5.70
2018-06-07T10:30:21.623Z,5.33
2018-06-07T10:36:27.409Z,5.63
2018-06-07T10:42:33.182Z,6.00
2018-06-07T10:48:38.899Z,6.37
2018-06-07T10:54:44.669Z,5.73
2018-06-07T11:00:51.152Z,5.60
2018-06-07T11:06:57.257Z,6.20
2018-06-07T11:13:03.181Z,6.03
2018-06-07T11:19:08.891Z,6.70
2018-06-07T11:25:14.574Z,6.33
2018-06-07T11:31:21.153Z,7.23
2018-06-07T11:37:26.884Z,6.50
2018-06-07T11:43:32.612Z,6.37
2018-06-07T11:49:38.287Z,7.90
2018-06-07T11:55:43.927Z,7.10
2018-06-07T12:01:49.745Z,6.30
2018-06-07T12:07:55.574Z,6.20
2018-06-07T12:14:01.256Z,5.80
2018-06-07T12:20:06.953Z,6.20
2018-06-07T12:26:12.669Z,6.50
2018-06-07T12:32:18.337Z,7.13
2018-06-07T12:38:24.135Z,7.33
2018-06-07T12:44:30.065Z,7.10
2018-06-07T12:50:36.106Z,7.30
2018-06-07T12:56:42.239Z,7.40
2018-06-07T13:02:47.860Z,7.10
2018-06-07T13:08:54.049Z,7.03
2018-06-07T13:14:59.857Z,7.30
2018-06-07T13:21:05.464Z,7.20
2018-06-07T13:27:11.525Z,7.63
2018-06-07T13:33:17.189Z,8.40
2018-06-07T13:39:24.208Z,8.00
2018-06-07T13:45:29.923Z,8.30
2018-06-07T13:51:35.556Z,8.63
2018-06-07T13:57:41.485Z,7.90
2018-06-07T14:03:47.309Z,8.67
2018-06-07T14:09:54.669Z,7.90
2018-06-07T14:16:00.373Z,8.40
2018-06-07T14:22:06.233Z,7.80
2018-06-07T14:28:11.896Z,7.97
2018-06-07T14:34:17.985Z,8.07
2018-06-07T14:40:23.925Z,8.53
2018-06-07T14:46:29.633Z,7.67
2018-06-07T14:52:35.282Z,7.20
2018-06-07T14:58:41.456Z,7.70
2018-06-07T15:04:47.171Z,7.67
2018-06-07T15:10:53.461Z,11.60
2018-06-07T15:16:59.164Z,7.63
2018-06-07T15:23:04.791Z,7.73
2018-06-07T15:29:10.446Z,8.90
2018-06-07T15:35:16.294Z,8.10
2018-06-07T15:41:21.889Z,8.13
2018-06-07T15:47:27.694Z,7.60
2018-06-07T15:53:33.501Z,8.00
2018-06-07T15:59:39.243Z,8.53
2018-06-07T16:05:45.063Z,8.60
2018-06-07T16:11:50.936Z,7.67
2018-06-07T16:17:56.804Z,8.10
2018-06-07T16:24:02.492Z,8.47
2018-06-07T16:30:08.384Z,7.30
2018-06-07T16:36:14.145Z,7.90
2018-06-07T16:42:19.967Z,7.27
2018-06-07T16:48:25.673Z,8.00
2018-06-07T16:54:31.528Z,7.07
2018-06-07T17:00:37.183Z,7.87
2018-06-07T17:06:43.020Z,8.47
2018-06-07T17:12:48.868Z,4.30
2018-06-07T17:18:54.617Z,3.20
2018-06-07T17:25:00.363Z,5.27
2018-06-07T17:31:06.488Z,7.00
2018-06-07T17:37:12.585Z,9.47
2018-06-07T17:43:18.289Z,5.37
2018-06-07T17:49:24.556Z,9.07
2018-06-07T17:55:30.240Z,11.57
2018-06-07T18:01:36.148Z,11.97
2018-06-07T18:07:41.851Z,13.33
2018-06-07T18:13:47.655Z,13.33
2018-06-07T18:19:54.682Z,12.93
2018-06-07T18:26:00.386Z,11.90
2018-06-07T18:32:06.953Z,14.87
2018-06-07T18:38:12.736Z,14.73
2018-06-07T18:44:18.583Z,12.80
2018-06-07T18:50:24.338Z,14.40
2018-06-07T18:56:30.253Z,14.03
2018-06-07T19:02:38.948Z,13.77
2018-06-07T19:08:50.201Z,11.37
2018-06-07T19:15:01.354Z,14.90
2018-06-07T19:21:07.649Z,12.17
2018-06-07T19:27:18.681Z,13.63
2018-06-07T19:33:29.452Z,12.37
2018-06-07T19:39:40.404Z,12.10
2018-06-07T19:45:46.115Z,12.50
2018-06-07T19:51:53.830Z,12.70
2018-06-07T19:57:59.477Z,13.50
2018-06-07T20:04:05.284Z,14.23
2018-06-07T20:10:11.112Z,13.40
2018-06-07T20:16:16.739Z,12.63
2018-06-07T20:22:22.371Z,13.07
2018-06-07T20:28:28.154Z,13.83
2018-06-07T20:34:34.075Z,14.50
2018-06-07T20:40:39.912Z,14.33
2018-06-07T20:46:45.689Z,13.90
2018-06-07T20:52:52.033Z,13.23
2018-06-07T20:58:57.761Z,14.37
2018-06-07T21:05:03.696Z,12.53
2018-06-07T21:11:09.493Z,13.20
2018-06-07T21:17:15.190Z,15.10
2018-06-07T21:23:22.279Z,14.43
2018-06-07T21:29:28.334Z,14.37
2018-06-07T21:35:34.220Z,16.90
2018-06-07T21:41:39.887Z,16.00
2018-06-07T21:47:45.669Z,15.90
2018-06-07T21:53:51.614Z,15.23
2018-06-07T21:59:58.151Z,17.03
2018-06-07T22:06:03.784Z,18.50
2018-06-07T22:12:09.510Z,17.40
2018-06-07T22:18:15.218Z,17.90
2018-06-07T22:24:20.991Z,16.47
2018-06-07T22:30:26.626Z,16.00
2018-06-07T22:36:32.261Z,13.73
2018-06-07T22:42:37.939Z,14.33
2018-06-07T22:48:43.645Z,19.77
2018-06-07T22:54:49.519Z,17.10
2018-06-07T23:00:55.525Z,16.27
2018-06-07T23:07:01.360Z,16.10
2018-06-07T23:13:07.087Z,15.47
2018-06-07T23:19:12.785Z,16.40
2018-06-07T23:25:18.571Z,16.23
2018-06-07T23:31:24.280Z,15.67
2018-06-07T23:37:30.037Z,14.77
2018-06-07T23:43:35.723Z,14.60
2018-06-07T23:49:41.604Z,14.60
2018-06-07T23:55:47.653Z,16.67
